WSAP/QPG METAR and TAF weather

Enter ICAO airport designator
Station Type Date Time Source
WSAP METAR 2022/06/26 08:00 UTC NOAA

WSAP 260800Z 19009KT 9999 FEW018TCU BKN300 32/23 Q1007


Station Type Date Time Source
WSAP Decoded METAR 2022/06/26 08:00 UTC NOAA

Singapore / Paya Lebar, Singapore (WSAP) 01-22N 103-55E 32M
Jun 26, 2022 - 04:00 AM EDT / 2022.06.26 0800 UTC
Wind: from the S (190 degrees) at 10 MPH (9 KT):0
Visibility: greater than 7 mile(s):0
Sky conditions: mostly cloudy
Weather: Towering cumulus clouds observed
Temperature: 89 F (32 C)
Heat index: 96.8 F (36.0 C):1
Dew Point: 73 F (23 C)
Relative Humidity: 59%
Pressure (altimeter): 29.74 in. Hg (1007 hPa)
ob: WSAP 260800Z 19009KT 9999 FEW018TCU BKN300 32/23 Q1007
cycle: 8

Station Type Date Time Source
WSAP TAF 2022/06/26 08:04 UTC NOAA

TAF
AMD WSAP 260800Z 2608/2712 16008KT 9999 FEW015 SCT020

Example: see airport list